Time;durP1;ratioP1;P1;durP2;ratioP2;P2;SDS_P1;SDS_P2;PMS_P1;PMS_P2;Temp;Humidity;BMP_temperature;BMP_pressure;BME280_temperature;BME280_humidity;BME280_pressure;Samples;Min_cycle;Max_cycle;Signal;HPM_P1;HPM_P2
2023/01/13 00:01:13;;;;;;;3.08;2.25;;;9.90;99.90;;;;;;5085787;28;20026;-74
2023/01/13 00:03:39;;;;;;;3.38;2.20;;;9.90;99.90;;;;;;5087126;28;20046;-74
2023/01/13 00:06:06;;;;;;;3.78;2.22;;;9.90;99.90;;;;;;5070859;28;20118;-74
2023/01/13 00:08:32;;;;;;;3.58;2.17;;;9.90;99.90;;;;;;5106450;28;20141;-75
2023/01/13 00:10:58;;;;;;;2.90;2.30;;;9.80;99.90;;;;;;5101401;28;20050;-74
2023/01/13 00:13:27;;;;;;;2.47;1.90;;;9.90;99.90;;;;;;5085825;28;20031;-74
2023/01/13 00:16:01;;;;;;;4.28;1.70;;;9.90;99.90;;;;;;5086554;28;20027;-74
2023/01/13 00:18:27;;;;;;;3.25;1.90;;;9.90;99.90;;;;;;5071782;28;20069;-74
2023/01/13 00:21:01;;;;;;;4.53;1.90;;;9.90;99.90;;;;;;5070963;28;20019;-74
2023/01/13 00:23:28;;;;;;;3.28;2.05;;;9.80;99.90;;;;;;5088493;28;20038;-75
2023/01/13 00:25:55;;;;;;;3.72;1.92;;;9.80;99.90;;;;;;5084675;28;20061;-75
2023/01/13 00:28:21;;;;;;;2.80;1.20;;;9.80;99.90;;;;;;5106945;28;20036;-75
2023/01/13 00:30:47;;;;;;;4.88;1.33;;;9.70;99.90;;;;;;5106871;28;20101;-75
2023/01/13 00:33:12;;;;;;;4.18;1.20;;;9.60;99.90;;;;;;5091744;28;20138;-75
2023/01/13 00:35:38;;;;;;;5.75;1.10;;;9.60;99.90;;;;;;5070180;28;20110;-75
2023/01/13 00:38:04;;;;;;;2.15;1.27;;;9.50;99.90;;;;;;5084784;28;20035;-75
2023/01/13 00:40:29;;;;;;;3.67;1.50;;;9.50;99.90;;;;;;5084641;28;20031;-75
2023/01/13 00:45:39;;;;;;;5.28;1.25;;;9.40;99.90;;;;;;5103295;28;20016;-74
2023/01/13 00:48:05;;;;;;;4.15;1.10;;;9.40;99.90;;;;;;5086835;28;20043;-75
2023/01/13 00:50:31;;;;;;;5.72;1.33;;;9.30;99.90;;;;;;5082462;28;21481;-75
2023/01/13 00:53:00;;;;;;;5.13;1.23;;;9.20;99.90;;;;;;5106414;28;20024;-74
2023/01/13 00:55:28;;;;;;;8.50;1.63;;;9.10;99.90;;;;;;5087306;28;20028;-74
2023/01/13 00:57:54;;;;;;;7.95;1.50;;;9.10;99.90;;;;;;5106419;28;20020;-74
2023/01/13 01:00:20;;;;;;;7.82;1.50;;;9.00;99.90;;;;;;5083391;28;20027;-74
2023/01/13 01:02:46;;;;;;;6.85;1.08;;;8.90;99.90;;;;;;5089938;28;20031;-74
2023/01/13 01:05:12;;;;;;;6.30;1.10;;;8.90;99.90;;;;;;5090510;28;20108;-74
2023/01/13 01:07:37;;;;;;;5.35;0.90;;;8.80;99.90;;;;;;5109604;28;20073;-75
2023/01/13 01:10:04;;;;;;;7.38;1.35;;;8.80;99.90;;;;;;5107045;28;20023;-75
2023/01/13 01:12:30;;;;;;;7.60;1.10;;;8.70;99.90;;;;;;5108379;28;20024;-75
2023/01/13 01:14:56;;;;;;;3.70;0.88;;;8.70;99.90;;;;;;5089949;28;20031;-74
2023/01/13 01:17:21;;;;;;;7.15;1.23;;;8.70;99.90;;;;;;5107160;28;20517;-75
2023/01/13 01:19:47;;;;;;;7.30;1.48;;;8.60;99.90;;;;;;5107571;28;20144;-75
2023/01/13 01:22:13;;;;;;;5.63;1.35;;;8.60;99.90;;;;;;5087778;28;20095;-74
2023/01/13 01:24:39;;;;;;;6.15;1.10;;;8.60;99.90;;;;;;5087666;28;20109;-75
2023/01/13 01:27:04;;;;;;;7.90;1.50;;;8.60;99.90;;;;;;5104571;28;20117;-74
2023/01/13 01:29:30;;;;;;;5.57;1.65;;;8.60;99.90;;;;;;5084884;28;20031;-75
2023/01/13 01:31:57;;;;;;;9.45;1.52;;;8.60;99.90;;;;;;5108520;28;20028;-75
2023/01/13 01:34:23;;;;;;;6.15;1.20;;;8.50;99.90;;;;;;5107962;28;20031;-75
2023/01/13 01:36:49;;;;;;;13.40;1.30;;;8.50;99.90;;;;;;5087166;28;20036;-75
2023/01/13 01:39:14;;;;;;;11.85;1.88;;;8.50;99.90;;;;;;5089451;28;20510;-75
2023/01/13 01:43:57;;;;;;;12.32;1.58;;;8.50;99.90;;;;;;5087549;28;20023;-75
2023/01/13 01:44:41;;;;;;;8.95;1.88;;;8.50;99.90;;;;;;5105915;28;20059;-75
2023/01/13 01:47:16;;;;;;;8.35;1.42;;;8.50;99.90;;;;;;5089831;28;20503;-75
2023/01/13 01:49:44;;;;;;;10.77;2.08;;;8.50;99.90;;;;;;5085402;28;20035;-75
2023/01/13 01:52:22;;;;;;;14.93;1.77;;;8.50;99.90;;;;;;5085622;28;20032;-75
2023/01/13 01:54:51;;;;;;;12.05;2.13;;;8.50;99.90;;;;;;5105902;28;20070;-75
2023/01/13 01:57:25;;;;;;;6.80;1.90;;;8.50;99.90;;;;;;5083930;28;20047;-75
2023/01/13 01:59:51;;;;;;;10.00;1.58;;;8.50;99.90;;;;;;5083013;28;20514;-75
2023/01/13 02:02:17;;;;;;;8.52;1.65;;;8.40;99.90;;;;;;5101640;28;20077;-75
2023/01/13 02:04:49;;;;;;;8.93;1.55;;;8.40;99.90;;;;;;5087010;28;20028;-75
2023/01/13 02:07:29;;;;;;;10.30;1.77;;;8.50;99.90;;;;;;5102882;28;20020;-75
2023/01/13 02:09:57;;;;;;;17.23;2.30;;;8.40;99.90;;;;;;5084767;28;20434;-75
2023/01/13 02:12:28;;;;;;;12.00;2.35;;;8.40;99.90;;;;;;5082846;28;20055;-75
2023/01/13 02:15:06;;;;;;;7.53;2.00;;;8.40;99.90;;;;;;5084135;28;20019;-75
2023/01/13 02:17:48;;;;;;;14.27;1.80;;;8.40;99.90;;;;;;5082913;28;20042;-75
2023/01/13 02:20:32;;;;;;;13.75;2.10;;;8.40;99.90;;;;;;5102844;28;20023;-75
2023/01/13 02:23:06;;;;;;;12.90;1.80;;;8.30;99.90;;;;;;5101226;28;20066;-75
2023/01/13 02:25:44;;;;;;;15.68;2.13;;;8.30;99.90;;;;;;5083698;28;20095;-75
2023/01/13 02:28:17;;;;;;;16.08;3.22;;;8.30;99.90;;;;;;5082914;28;20051;-75
2023/01/13 02:33:49;;;;;;;14.35;2.33;;;8.30;99.90;;;;;;5085318;28;20455;-75
2023/01/13 02:36:21;;;;;;;15.48;2.67;;;8.30;99.90;;;;;;5103349;28;20032;-75
2023/01/13 02:38:55;;;;;;;17.33;2.83;;;8.30;99.90;;;;;;5082940;28;20031;-75
2023/01/13 02:44:19;;;;;;;20.45;2.50;;;8.30;99.90;;;;;;5084996;28;20065;-74
2023/01/13 02:47:00;;;;;;;12.63;2.17;;;8.30;99.90;;;;;;5087180;28;20019;-75
2023/01/13 02:49:33;;;;;;;12.73;2.47;;;8.30;99.90;;;;;;5087112;28;20069;-74
2023/01/13 02:52:06;;;;;;;23.35;3.25;;;8.30;99.90;;;;;;5083532;28;20408;-74
2023/01/13 02:54:34;;;;;;;19.00;2.65;;;8.30;99.90;;;;;;5089386;28;20027;-75
2023/01/13 02:57:02;;;;;;;23.27;2.80;;;8.30;99.90;;;;;;5101618;28;20028;-73
2023/01/13 02:59:30;;;;;;;12.65;2.42;;;8.20;99.90;;;;;;5106535;28;20032;-74
2023/01/13 03:01:57;;;;;;;13.55;2.55;;;8.30;99.90;;;;;;5102943;28;20052;-74
2023/01/13 03:04:45;;;;;;;18.10;2.65;;;8.30;99.90;;;;;;5082075;28;20028;-75
2023/01/13 03:07:45;;;;;;;12.45;2.25;;;8.20;99.90;;;;;;5086445;28;20495;-74
2023/01/13 03:10:49;;;;;;;19.17;2.92;;;8.20;99.90;;;;;;5084148;28;20020;-74
2023/01/13 03:13:33;;;;;;;15.65;2.40;;;8.20;99.90;;;;;;5101984;28;20024;-74
2023/01/13 03:16:23;;;;;;;15.82;2.78;;;8.20;99.90;;;;;;5084270;28;20024;-74
2023/01/13 03:19:07;;;;;;;16.77;2.83;;;8.20;99.90;;;;;;5105461;28;20035;-74
2023/01/13 03:22:14;;;;;;;17.30;3.20;;;8.10;99.90;;;;;;5084708;28;20016;-74
2023/01/13 03:24:52;;;;;;;13.60;2.38;;;8.10;99.90;;;;;;5088793;28;20024;-74
2023/01/13 03:27:49;;;;;;;17.45;2.72;;;8.10;99.90;;;;;;5107865;28;20457;-74
2023/01/13 03:30:19;;;;;;;17.98;2.92;;;8.20;99.90;;;;;;5107860;28;20023;-75
2023/01/13 03:32:49;;;;;;;20.92;2.95;;;8.20;99.90;;;;;;5107307;28;20032;-74
2023/01/13 03:35:37;;;;;;;21.65;2.65;;;8.10;99.90;;;;;;5107472;28;20032;-74
2023/01/13 03:38:12;;;;;;;13.75;2.22;;;8.10;99.90;;;;;;5090065;28;20419;-74
2023/01/13 03:40:49;;;;;;;24.35;4.03;;;8.10;99.90;;;;;;5107924;28;20035;-74
2023/01/13 03:46:13;;;;;;;25.98;3.67;;;8.00;99.90;;;;;;5088651;28;20031;-74
2023/01/13 03:48:42;;;;;;;32.53;5.43;;;8.00;99.90;;;;;;5086680;28;20035;-74
2023/01/13 03:51:14;;;;;;;21.15;3.38;;;8.00;99.90;;;;;;5086453;28;20039;-74
2023/01/13 03:53:56;;;;;;;17.95;3.58;;;7.90;99.90;;;;;;5089047;28;20444;-74
2023/01/13 03:56:32;;;;;;;32.60;4.13;;;8.00;99.90;;;;;;5089278;28;20085;-74
2023/01/13 03:59:03;;;;;;;26.10;4.65;;;8.00;99.90;;;;;;5088063;28;20189;-73
2023/01/13 04:01:55;;;;;;;22.17;3.35;;;7.90;99.90;;;;;;5088538;28;20059;-73
2023/01/13 04:04:47;;;;;;;20.33;3.38;;;7.90;99.90;;;;;;5108369;27;20035;-74
2023/01/13 04:07:31;;;;;;;27.95;3.47;;;7.80;99.90;;;;;;5096278;28;20035;-74
2023/01/13 04:10:00;;;;;;;25.95;4.13;;;7.90;99.90;;;;;;5086732;28;20024;-74
2023/01/13 04:13:01;;;;;;;24.35;4.05;;;7.90;99.90;;;;;;5084607;28;20063;-74
2023/01/13 04:15:37;;;;;;;23.05;3.45;;;7.90;99.90;;;;;;5070427;28;20047;-74
2023/01/13 04:18:12;;;;;;;20.52;3.85;;;7.80;99.90;;;;;;5085617;28;20039;-73
2023/01/13 04:20:38;;;;;;;23.80;3.17;;;7.80;99.90;;;;;;5085893;28;20027;-75
2023/01/13 04:23:05;;;;;;;20.45;3.35;;;7.80;99.90;;;;;;5107674;28;20106;-75
2023/01/13 04:25:31;;;;;;;22.17;3.55;;;7.80;99.90;;;;;;5084220;28;20035;-75
2023/01/13 04:27:56;;;;;;;22.98;3.50;;;7.70;99.90;;;;;;5083349;28;20031;-75
2023/01/13 04:30:22;;;;;;;20.05;3.30;;;7.80;99.90;;;;;;5087332;28;20028;-76
2023/01/13 04:32:48;;;;;;;21.58;3.33;;;7.70;99.90;;;;;;5085752;28;20509;-75
2023/01/13 04:35:14;;;;;;;17.98;2.85;;;7.80;99.90;;;;;;5104558;28;20491;-74
2023/01/13 04:37:39;;;;;;;26.52;4.47;;;7.70;99.90;;;;;;5091405;28;20040;-74
2023/01/13 04:40:06;;;;;;;24.63;4.18;;;7.70;99.90;;;;;;5101616;28;20035;-74
2023/01/13 04:42:32;;;;;;;21.88;4.05;;;7.70;99.90;;;;;;5101363;28;20066;-75
2023/01/13 04:44:57;;;;;;;29.55;3.47;;;7.70;99.90;;;;;;5105115;28;20070;-76
2023/01/13 04:47:23;;;;;;;23.15;4.10;;;7.70;99.90;;;;;;5101830;28;20027;-74
2023/01/13 04:49:49;;;;;;;26.70;3.67;;;7.70;99.90;;;;;;5083336;28;20019;-74
2023/01/13 04:52:14;;;;;;;21.60;3.00;;;7.60;99.90;;;;;;5084494;28;20055;-76
2023/01/13 04:54:40;;;;;;;23.17;3.15;;;7.60;99.90;;;;;;5086679;28;20375;-73
2023/01/13 04:57:06;;;;;;;23.95;3.80;;;7.70;99.90;;;;;;5106531;28;20107;-74
2023/01/13 04:59:32;;;;;;;22.20;4.10;;;7.60;99.90;;;;;;5086255;28;20055;-74
2023/01/13 05:01:57;;;;;;;21.20;3.33;;;7.60;99.90;;;;;;5106664;28;20509;-74
2023/01/13 05:04:23;;;;;;;32.08;4.88;;;7.60;99.90;;;;;;5088769;28;20038;-74
2023/01/13 05:06:49;;;;;;;20.52;3.60;;;7.60;99.90;;;;;;5105156;28;20098;-74
2023/01/13 05:09:14;;;;;;;20.20;3.88;;;7.60;99.90;;;;;;5083388;28;20499;-74
2023/01/13 05:17:15;;;;;;;18.83;3.72;;;7.60;99.90;;;;;;5105533;28;20217;-74
2023/01/13 05:19:41;;;;;;;24.67;3.28;;;7.60;99.90;;;;;;5106221;28;20045;-75
2023/01/13 05:27:35;;;;;;;22.25;3.38;;;7.60;99.90;;;;;;5099077;28;20032;-74
2023/01/13 05:30:02;;;;;;;21.00;4.05;;;7.60;99.90;;;;;;5101013;28;20046;-74
2023/01/13 05:32:27;;;;;;;29.50;4.35;;;7.60;99.90;;;;;;5082999;28;20031;-74
2023/01/13 05:34:54;;;;;;;24.92;4.10;;;7.60;99.90;;;;;;5085544;28;20038;-74
2023/01/13 05:37:21;;;;;;;19.30;3.85;;;7.50;99.90;;;;;;5084765;28;20075;-75
2023/01/13 05:45:15;;;;;;;19.77;4.35;;;7.60;99.90;;;;;;5078539;28;20028;-73
2023/01/13 05:47:41;;;;;;;25.30;3.90;;;7.70;99.90;;;;;;5098163;28;20039;-74
2023/01/13 05:50:08;;;;;;;23.55;3.97;;;7.70;99.90;;;;;;5098606;28;20074;-75
2023/01/13 05:52:34;;;;;;;20.92;3.92;;;7.70;99.90;;;;;;5097687;28;20027;-74
2023/01/13 05:55:01;;;;;;;26.75;4.10;;;7.70;99.90;;;;;;5076176;28;20130;-76
2023/01/13 05:57:27;;;;;;;23.65;4.47;;;7.70;99.90;;;;;;5077224;28;20043;-73
2023/01/13 05:59:54;;;;;;;26.45;3.67;;;7.70;99.90;;;;;;5078604;28;20528;-73
2023/01/13 06:02:19;;;;;;;22.42;3.58;;;7.70;99.90;;;;;;5093986;28;20092;-74
2023/01/13 06:04:45;;;;;;;22.00;4.13;;;7.70;99.90;;;;;;5079149;28;20015;-74
2023/01/13 06:07:11;;;;;;;26.80;4.82;;;7.70;99.90;;;;;;5081740;28;20043;-74
2023/01/13 06:09:37;;;;;;;20.27;4.18;;;7.70;99.90;;;;;;5100531;28;20033;-74
2023/01/13 06:12:03;;;;;;;24.90;3.83;;;7.70;99.90;;;;;;5100874;28;20085;-73
2023/01/13 06:14:38;;;;;;;28.55;4.60;;;7.70;99.90;;;;;;5082773;28;20036;-74
2023/01/13 06:17:13;;;;;;;29.88;4.80;;;7.70;99.90;;;;;;5085057;28;20655;-74
2023/01/13 06:19:39;;;;;;;24.00;4.03;;;7.70;99.90;;;;;;5082898;28;20031;-73
2023/01/13 06:22:18;;;;;;;22.83;3.83;;;7.70;99.90;;;;;;5093991;28;20114;-74
2023/01/13 06:24:45;;;;;;;21.52;4.18;;;7.60;99.90;;;;;;5081347;28;20030;-74
2023/01/13 06:27:12;;;;;;;23.70;4.00;;;7.60;99.90;;;;;;5068794;28;20027;-74
2023/01/13 06:29:37;;;;;;;30.95;4.55;;;7.60;99.90;;;;;;5103384;28;20089;-73
2023/01/13 06:32:13;;;;;;;20.05;3.15;;;7.60;99.90;;;;;;5084873;28;20077;-74
2023/01/13 06:34:42;;;;;;;20.20;4.20;;;7.60;99.90;;;;;;5083270;28;20024;-74
2023/01/13 06:37:11;;;;;;;16.42;3.05;;;7.60;99.90;;;;;;5068500;28;20028;-74
2023/01/13 06:39:38;;;;;;;23.20;4.03;;;7.70;99.90;;;;;;5099573;28;20028;-74
2023/01/13 06:44:49;;;;;;;26.90;3.78;;;7.60;99.90;;;;;;5098023;28;20024;-74
2023/01/13 06:47:15;;;;;;;22.25;3.70;;;7.60;99.90;;;;;;5096421;28;20039;-73
2023/01/13 06:49:41;;;;;;;23.10;4.10;;;7.60;99.90;;;;;;5077244;28;20074;-74
2023/01/13 06:52:06;;;;;;;31.35;4.30;;;7.60;99.90;;;;;;5063270;28;20059;-73
2023/01/13 06:54:33;;;;;;;23.70;4.13;;;7.60;99.90;;;;;;5102372;28;20035;-75
2023/01/13 06:57:00;;;;;;;23.25;3.90;;;7.60;99.90;;;;;;5101387;28;20019;-74
2023/01/13 06:59:26;;;;;;;20.02;4.20;;;7.60;99.90;;;;;;5102476;27;20103;-74
2023/01/13 07:01:51;;;;;;;26.02;3.95;;;7.60;99.90;;;;;;5106113;28;20102;-74
2023/01/13 07:04:18;;;;;;;20.60;3.72;;;7.60;99.90;;;;;;5106412;28;20043;-75
2023/01/13 07:06:44;;;;;;;21.25;4.10;;;7.70;99.90;;;;;;5088369;28;20596;-74
2023/01/13 07:09:10;;;;;;;28.83;4.55;;;7.70;99.90;;;;;;5088091;28;20063;-74
2023/01/13 07:11:36;;;;;;;25.15;4.40;;;7.70;99.90;;;;;;5102630;28;20106;-74
2023/01/13 07:16:46;;;;;;;27.13;4.15;;;7.70;99.90;;;;;;5104841;28;20552;-75
2023/01/13 07:19:11;;;;;;;19.05;4.00;;;7.70;99.90;;;;;;5081581;28;20031;-75
2023/01/13 07:21:37;;;;;;;24.45;4.70;;;7.80;99.90;;;;;;5087019;28;20161;-74
2023/01/13 07:24:03;;;;;;;24.20;4.57;;;7.80;99.90;;;;;;5108004;28;20028;-74
2023/01/13 07:26:29;;;;;;;27.83;4.03;;;7.80;99.90;;;;;;5087741;28;20024;-74
2023/01/13 07:28:54;;;;;;;27.17;4.88;;;7.80;99.90;;;;;;5086559;28;20162;-75
2023/01/13 07:31:20;;;;;;;20.90;4.38;;;7.80;99.90;;;;;;5103490;28;20526;-74
2023/01/13 07:33:47;;;;;;;24.17;3.83;;;7.80;99.90;;;;;;5086435;27;20069;-75
2023/01/13 07:36:13;;;;;;;24.55;4.47;;;7.80;99.90;;;;;;5085486;28;20031;-74
2023/01/13 07:38:39;;;;;;;22.23;4.57;;;7.80;99.90;;;;;;5089587;28;20085;-74
2023/01/13 07:43:51;;;;;;;22.60;4.70;;;7.80;99.90;;;;;;5084584;28;20050;-74
2023/01/13 07:46:17;;;;;;;24.73;4.10;;;7.80;99.90;;;;;;5102605;28;20074;-74
2023/01/13 07:48:43;;;;;;;21.33;3.88;;;7.80;99.90;;;;;;5090513;28;20027;-74
2023/01/13 07:51:10;;;;;;;23.63;4.60;;;7.80;99.90;;;;;;5106103;28;20027;-74
2023/01/13 07:53:36;;;;;;;28.25;4.93;;;7.80;99.90;;;;;;5104268;28;20532;-74
2023/01/13 07:56:04;;;;;;;20.25;4.43;;;7.70;99.90;;;;;;5105392;28;20093;-74
2023/01/13 07:58:29;;;;;;;22.73;4.25;;;7.70;99.90;;;;;;5103706;28;20024;-74
2023/01/13 08:00:56;;;;;;;28.00;4.22;;;7.70;99.90;;;;;;5082914;28;20634;-74
2023/01/13 08:03:22;;;;;;;26.33;4.25;;;7.70;99.90;;;;;;5085192;28;20028;-74
2023/01/13 08:05:48;;;;;;;17.83;3.97;;;7.70;99.90;;;;;;5082555;28;20062;-74
2023/01/13 08:08:14;;;;;;;28.83;5.43;;;7.80;99.90;;;;;;5099997;28;20066;-74
2023/01/13 08:10:40;;;;;;;25.52;4.70;;;7.80;99.90;;;;;;5107230;28;20031;-73
2023/01/13 08:13:18;;;;;;;24.00;3.63;;;7.80;99.90;;;;;;5061441;28;20027;-73
2023/01/13 08:15:45;;;;;;;21.25;4.13;;;7.80;99.90;;;;;;5104480;28;20058;-73
2023/01/13 08:18:11;;;;;;;22.88;3.50;;;7.90;99.90;;;;;;5083843;28;20130;-73
2023/01/13 08:20:37;;;;;;;30.27;4.50;;;7.90;99.90;;;;;;5075838;28;20031;-73
2023/01/13 08:23:03;;;;;;;25.17;4.30;;;7.90;99.90;;;;;;5085774;28;20019;-73
2023/01/13 08:25:30;;;;;;;25.75;4.05;;;7.90;99.90;;;;;;5081769;28;20053;-74
2023/01/13 08:27:56;;;;;;;22.35;4.18;;;8.00;99.90;;;;;;5071190;28;20061;-74
2023/01/13 08:30:21;;;;;;;19.60;3.58;;;8.00;99.90;;;;;;5100758;28;20031;-74
2023/01/13 08:32:49;;;;;;;20.23;4.25;;;8.10;99.90;;;;;;5107544;28;20035;-74
2023/01/13 08:35:16;;;;;;;22.35;4.53;;;8.10;99.90;;;;;;5086377;28;20473;-74
2023/01/13 08:37:42;;;;;;;21.50;4.13;;;8.10;99.90;;;;;;5102319;28;20111;-74
2023/01/13 08:40:09;;;;;;;25.13;4.70;;;8.10;99.90;;;;;;5106785;28;20031;-74
2023/01/13 08:42:35;;;;;;;19.00;4.00;;;8.10;99.90;;;;;;5088650;28;20028;-74
2023/01/13 08:45:01;;;;;;;21.95;4.63;;;8.10;99.90;;;;;;5104065;28;20106;-75
2023/01/13 08:47:27;;;;;;;22.65;4.47;;;8.20;99.90;;;;;;5104257;28;20031;-74
2023/01/13 08:49:53;;;;;;;19.73;3.97;;;8.30;99.90;;;;;;5102151;28;20031;-74
2023/01/13 08:52:20;;;;;;;23.27;4.00;;;8.30;99.90;;;;;;5102352;28;20038;-74
2023/01/13 08:54:46;;;;;;;19.75;4.30;;;8.30;99.90;;;;;;5101703;28;20023;-74
2023/01/13 08:57:12;;;;;;;18.90;3.47;;;8.30;99.90;;;;;;5109267;28;20039;-73
2023/01/13 08:59:37;;;;;;;20.58;3.88;;;8.30;99.90;;;;;;5088784;28;20032;-74
2023/01/13 09:02:11;;;;;;;26.55;4.25;;;8.30;99.90;;;;;;5082582;28;20027;-74
2023/01/13 09:04:38;;;;;;;22.15;4.47;;;8.30;99.90;;;;;;5102883;28;20475;-74
2023/01/13 09:07:03;;;;;;;17.98;4.18;;;8.40;99.90;;;;;;5069313;28;20099;-74
2023/01/13 09:09:29;;;;;;;30.88;3.88;;;8.40;99.90;;;;;;5086057;28;20114;-74
2023/01/13 09:14:39;;;;;;;25.75;3.85;;;8.40;99.90;;;;;;5104095;28;20038;-74
2023/01/13 09:17:06;;;;;;;21.30;4.55;;;8.40;99.90;;;;;;5101607;28;20522;-74
2023/01/13 09:19:32;;;;;;;23.27;3.38;;;8.40;99.90;;;;;;5084175;28;20118;-73
2023/01/13 09:21:58;;;;;;;28.52;4.00;;;8.40;99.90;;;;;;5100858;27;20067;-75
2023/01/13 09:24:25;;;;;;;15.68;3.63;;;8.30;99.90;;;;;;5103699;28;20051;-74
2023/01/13 09:26:51;;;;;;;18.60;3.42;;;8.30;99.90;;;;;;5084739;28;20027;-74
2023/01/13 09:29:17;;;;;;;17.17;3.05;;;8.30;99.90;;;;;;5084425;28;20037;-73
2023/01/13 09:31:43;;;;;;;12.70;2.85;;;8.30;99.90;;;;;;5103928;28;20501;-73
2023/01/13 09:37:07;;;;;;;17.40;3.17;;;8.30;99.90;;;;;;5103931;28;20023;-74
2023/01/13 09:39:34;;;;;;;23.77;3.08;;;8.40;99.90;;;;;;5097113;28;20023;-74
2023/01/13 09:45:10;;;;;;;11.23;2.50;;;8.40;99.90;;;;;;5088078;28;20166;-75
2023/01/13 09:47:51;;;;;;;20.23;3.70;;;8.40;99.90;;;;;;5084564;28;20164;-75
2023/01/13 09:51:16;;;;;;;17.77;2.58;;;8.40;99.90;;;;;;5067656;28;20028;-74
2023/01/13 09:54:11;;;;;;;15.13;3.08;;;8.40;99.90;;;;;;5034948;28;20422;-74
2023/01/13 09:56:37;;;;;;;16.90;2.80;;;8.40;99.90;;;;;;5102116;28;20056;-74
2023/01/13 09:59:03;;;;;;;16.90;2.60;;;8.50;99.90;;;;;;5068185;28;20059;-73
2023/01/13 10:01:40;;;;;;;15.10;2.20;;;8.50;99.90;;;;;;5079703;28;20020;-74
2023/01/13 10:04:10;;;;;;;15.32;2.47;;;8.50;99.90;;;;;;5105108;28;20028;-74
2023/01/13 10:06:41;;;;;;;17.33;2.90;;;8.50;99.90;;;;;;5108577;28;20494;-74
2023/01/13 10:09:20;;;;;;;16.48;2.38;;;8.50;99.90;;;;;;5105441;28;20794;-74
2023/01/13 10:14:32;;;;;;;16.42;2.58;;;8.50;99.90;;;;;;5103939;28;20037;-74
2023/01/13 10:17:26;;;;;;;14.48;2.30;;;8.50;99.90;;;;;;5082546;28;20028;-74
2023/01/13 10:20:08;;;;;;;11.10;2.03;;;8.50;99.90;;;;;;5086790;28;20051;-75
2023/01/13 10:22:56;;;;;;;13.18;1.92;;;8.50;99.90;;;;;;5102375;28;20024;-74
2023/01/13 10:26:00;;;;;;;11.45;2.10;;;8.60;99.90;;;;;;5055380;28;20032;-74
2023/01/13 10:28:25;;;;;;;11.48;2.08;;;8.60;99.90;;;;;;5084960;28;20112;-74
2023/01/13 10:30:51;;;;;;;14.93;2.30;;;8.60;99.90;;;;;;5081405;28;20554;-74
2023/01/13 10:33:19;;;;;;;9.18;2.08;;;8.60;99.90;;;;;;5100860;28;20400;-74
2023/01/13 10:35:53;;;;;;;11.73;1.95;;;8.70;99.90;;;;;;5103592;28;20036;-73
2023/01/13 10:38:30;;;;;;;13.95;2.63;;;8.70;99.90;;;;;;5086203;28;20039;-74
2023/01/13 10:41:02;;;;;;;10.13;2.05;;;8.70;99.90;;;;;;5081521;28;20140;-74
2023/01/13 10:43:29;;;;;;;12.18;1.98;;;8.80;99.90;;;;;;5068082;28;20024;-74
2023/01/13 10:46:09;;;;;;;10.85;2.75;;;8.70;99.90;;;;;;5103303;28;20102;-74
2023/01/13 10:48:37;;;;;;;12.07;2.53;;;8.70;99.90;;;;;;5084582;28;20088;-74
2023/01/13 10:51:12;;;;;;;7.38;1.85;;;8.60;99.90;;;;;;5083349;28;20054;-74
2023/01/13 10:53:55;;;;;;;9.30;2.00;;;8.60;99.90;;;;;;5083553;28;20506;-74
2023/01/13 10:56:23;;;;;;;13.90;2.67;;;8.60;99.90;;;;;;5087353;28;20503;-74
2023/01/13 10:58:49;;;;;;;15.90;3.25;;;8.60;99.90;;;;;;5086148;28;20077;-74
2023/01/13 11:01:26;;;;;;;15.45;2.58;;;8.50;99.90;;;;;;5084780;28;20031;-73
2023/01/13 11:03:55;;;;;;;15.50;2.75;;;8.40;99.90;;;;;;5102956;28;20027;-73
2023/01/13 11:06:32;;;;;;;13.80;2.58;;;8.30;99.90;;;;;;5068483;28;20499;-73
2023/01/13 11:08:58;;;;;;;10.35;2.78;;;8.20;99.90;;;;;;5103854;28;20084;-74
2023/01/13 11:11:54;;;;;;;18.73;2.72;;;8.20;99.90;;;;;;5087889;28;20027;-73
2023/01/13 11:14:42;;;;;;;12.85;2.28;;;8.20;99.90;;;;;;5098961;28;20071;-73
2023/01/13 11:17:13;;;;;;;13.73;2.35;;;8.10;99.90;;;;;;5102404;28;20114;-73
2023/01/13 11:19:46;;;;;;;10.48;2.20;;;8.10;99.90;;;;;;5085667;28;20024;-73
2023/01/13 11:22:19;;;;;;;9.35;2.67;;;8.20;99.90;;;;;;5104081;28;20028;-73
2023/01/13 11:25:00;;;;;;;13.48;2.75;;;8.20;99.90;;;;;;5099238;28;20027;-74
2023/01/13 11:27:26;;;;;;;9.02;2.00;;;8.20;99.90;;;;;;5086958;28;20061;-73
2023/01/13 11:30:31;;;;;;;13.52;2.63;;;8.20;99.90;;;;;;5086696;28;20982;-73
2023/01/13 11:33:14;;;;;;;12.23;2.25;;;8.30;99.90;;;;;;5102066;28;20023;-73
2023/01/13 11:35:59;;;;;;;14.43;2.65;;;8.30;99.90;;;;;;5083998;28;20027;-73
2023/01/13 11:38:46;;;;;;;11.77;2.13;;;8.30;99.90;;;;;;5073142;28;20035;-74
2023/01/13 11:41:31;;;;;;;10.90;2.40;;;8.40;99.90;;;;;;5085455;28;20457;-74
2023/01/13 11:44:20;;;;;;;11.40;2.47;;;8.50;99.90;;;;;;5101838;28;20471;-74
2023/01/13 11:46:49;;;;;;;8.25;1.85;;;8.60;99.90;;;;;;5088929;28;20402;-73
2023/01/13 11:49:31;;;;;;;12.27;2.53;;;8.60;99.90;;;;;;5085548;28;20035;-74
2023/01/13 11:52:18;;;;;;;8.82;1.80;;;8.60;99.90;;;;;;5107834;28;20035;-74
2023/01/13 11:55:16;;;;;;;9.00;1.80;;;8.60;99.90;;;;;;5107686;28;20035;-74
2023/01/13 11:58:01;;;;;;;13.43;2.25;;;8.60;99.90;;;;;;5078911;28;20117;-75
2023/01/13 12:00:49;;;;;;;10.20;2.22;;;8.60;99.90;;;;;;5102238;27;20043;-74
2023/01/13 12:03:44;;;;;;;8.25;1.85;;;8.60;99.90;;;;;;5102578;28;20020;-74
2023/01/13 12:06:13;;;;;;;14.98;2.70;;;8.50;99.90;;;;;;5067023;28;20047;-74
2023/01/13 12:09:16;;;;;;;8.60;1.70;;;8.50;99.90;;;;;;5072357;28;20035;-74
2023/01/13 12:12:33;;;;;;;8.43;2.00;;;8.50;99.90;;;;;;5107158;28;20027;-75
2023/01/13 12:15:19;;;;;;;10.18;1.88;;;8.40;99.90;;;;;;5104250;28;20121;-73
2023/01/13 12:18:13;;;;;;;10.25;2.03;;;8.30;99.90;;;;;;5107077;28;20034;-74
2023/01/13 12:20:54;;;;;;;8.45;2.10;;;8.30;99.90;;;;;;5087112;28;20107;-74
2023/01/13 12:23:35;;;;;;;6.75;2.00;;;8.30;99.90;;;;;;5089635;28;20127;-74
2023/01/13 12:26:06;;;;;;;;;;;8.30;99.90;;;;;;5069696;28;20028;-76
2023/01/13 12:28:51;;;;;;;13.47;2.47;;;8.20;99.90;;;;;;5087024;28;19912;-75
2023/01/13 12:31:19;;;;;;;12.00;2.63;;;8.20;99.90;;;;;;5078751;28;20281;-76
2023/01/13 12:34:00;;;;;;;11.60;2.25;;;8.20;99.90;;;;;;5100708;28;20051;-75
2023/01/13 12:36:31;;;;;;;7.80;2.35;;;8.20;99.90;;;;;;5086325;28;20019;-74
2023/01/13 12:39:05;;;;;;;9.10;2.10;;;8.20;99.90;;;;;;5072610;28;20526;-75
2023/01/13 12:44:36;;;;;;;15.15;2.83;;;8.30;99.90;;;;;;5088045;28;20032;-76
2023/01/13 12:47:02;;;;;;;11.70;2.80;;;8.30;99.90;;;;;;5080486;28;20468;-75
2023/01/13 12:49:35;;;;;;;11.25;2.05;;;8.30;99.90;;;;;;5069135;28;20032;-76
2023/01/13 12:52:09;;;;;;;10.40;2.60;;;8.20;99.90;;;;;;5087034;28;20039;-74
2023/01/13 12:54:39;;;;;;;17.58;3.05;;;8.20;99.90;;;;;;5100065;28;20031;-75
2023/01/13 12:57:21;;;;;;;15.23;3.13;;;8.10;99.90;;;;;;5068703;28;20055;-75
2023/01/13 13:00:11;;;;;;;17.35;2.58;;;8.10;99.90;;;;;;5103626;28;20034;-75
2023/01/13 13:02:40;;;;;;;13.07;2.85;;;8.10;99.90;;;;;;5065452;28;20032;-75
2023/01/13 13:05:24;;;;;;;13.00;2.85;;;8.10;99.90;;;;;;5065929;27;20023;-76
2023/01/13 13:08:13;;;;;;;13.02;2.97;;;8.20;99.90;;;;;;5103035;28;20031;-76
2023/01/13 13:13:16;;;;;;;13.13;2.15;;;8.10;99.90;;;;;;5090056;28;20038;-75
2023/01/13 13:13:53;;;;;;;12.98;2.38;;;8.10;99.90;;;;;;5111026;28;20032;-76
2023/01/13 13:16:25;;;;;;;14.00;2.80;;;8.10;99.90;;;;;;5103607;28;20088;-76
2023/01/13 13:19:19;;;;;;;12.18;2.30;;;8.10;99.90;;;;;;5069815;28;20081;-76
2023/01/13 13:22:11;;;;;;;14.27;2.38;;;8.10;99.90;;;;;;5066081;28;20051;-76
2023/01/13 13:24:41;;;;;;;11.48;2.25;;;8.10;99.90;;;;;;5087318;28;20411;-75
2023/01/13 13:27:36;;;;;;;14.88;3.38;;;8.20;99.90;;;;;;5086525;28;20032;-75
2023/01/13 13:30:17;;;;;;;14.52;2.72;;;8.20;99.90;;;;;;5084380;28;20506;-76
2023/01/13 13:32:55;;;;;;;13.70;2.45;;;8.20;99.90;;;;;;5085380;28;20049;-76
2023/01/13 13:35:33;;;;;;;9.25;2.92;;;8.20;99.90;;;;;;5081871;28;20039;-76
2023/01/13 13:46:47;;;;;;;12.82;3.10;;;8.00;99.90;;;;;;5085118;28;20053;-76
2023/01/13 13:49:32;;;;;;;14.35;2.67;;;8.00;99.90;;;;;;5086848;28;20123;-76
2023/01/13 13:52:03;;;;;;;9.50;2.90;;;7.90;99.90;;;;;;5087860;28;20096;-76
2023/01/13 13:54:31;;;;;;;14.10;2.83;;;7.90;99.90;;;;;;5087527;28;20035;-76
2023/01/13 13:56:57;;;;;;;16.70;2.70;;;7.90;99.90;;;;;;5096813;28;20482;-76
2023/01/13 13:59:26;;;;;;;11.85;2.70;;;7.90;99.90;;;;;;5114286;28;20051;-76
2023/01/13 14:02:00;;;;;;;12.55;2.70;;;7.90;99.90;;;;;;5081198;28;20996;-76
2023/01/13 14:04:29;;;;;;;9.35;2.28;;;7.90;99.90;;;;;;5100814;28;20118;-76
2023/01/13 14:06:57;;;;;;;9.90;2.22;;;7.90;99.90;;;;;;5082991;28;20031;-76
2023/01/13 14:09:27;;;;;;;10.98;3.08;;;7.90;99.90;;;;;;5087726;28;20041;-75
2023/01/13 14:11:58;;;;;;;14.88;3.10;;;7.90;99.90;;;;;;5086653;28;20688;-76
2023/01/13 14:14:31;;;;;;;8.30;2.60;;;7.80;99.90;;;;;;5081750;28;20491;-77